< Typhoon 196317 1963 Season Typhoon 196319 >
Typhoon 196318 (KIT)
General InformationTrack Information on Google Maps || Disaster Info.ResourceGoogle EarthGE AnimationAtom FeedGeoJSON
Detalied Best Track (Time Zone = UTC)
Year Month Day Hour Lat. Long. Pressure (hPa) Wind (kt) Class Image Chart
1963 10 3 06 10.3 140.3 1006 0 2 -- Chart
1963 10 3 12 11.3 141.1 1008 0 2 -- Chart
1963 10 3 18 12.2 141.8 1006 0 2 -- Chart
1963 10 4 00 13.0 141.5 1006 0 2 -- Chart
1963 10 4 06 13.6 141.0 1004 0 2 -- Chart
1963 10 4 12 14.2 140.5 1004 0 2 -- Chart
1963 10 4 18 14.8 140.1 1004 0 2 -- Chart
1963 10 5 00 15.3 139.5 1002 0 2 -- Chart
1963 10 5 06 15.8 139.4 998 0 2 -- Chart
1963 10 5 12 16.3 139.3 996 0 2 -- Chart
1963 10 5 18 16.8 139.3 996 0 2 -- Chart
1963 10 6 00 17.5 139.3 993 0 9 -- Chart
1963 10 6 06 17.9 138.7 993 0 9 -- Chart
1963 10 6 12 18.4 138.0 992 0 9 -- Chart
1963 10 6 18 18.8 137.4 990 0 9 -- Chart
1963 10 7 00 19.1 136.7 985 0 9 -- Chart
1963 10 7 06 19.5 136.4 978 0 9 -- Chart
1963 10 7 12 19.8 136.0 970 0 9 -- Chart
1963 10 7 18 20.0 135.5 962 0 9 -- Chart
1963 10 8 00 20.0 134.9 955 0 9 -- Chart
1963 10 8 06 20.2 134.2 950 0 9 -- Chart
1963 10 8 12 20.3 133.7 945 0 9 -- Chart
1963 10 8 18 20.7 132.9 940 0 9 -- Chart
1963 10 9 00 21.0 132.1 935 0 9 -- Chart
1963 10 9 06 21.3 131.5 935 0 9 -- Chart
1963 10 9 12 21.8 131.3 935 0 9 -- Chart
1963 10 9 18 22.7 131.7 935 0 9 -- Chart
1963 10 10 00 23.7 132.1 935 0 9 -- Chart
1963 10 10 06 24.8 132.8 930 0 9 -- Chart
1963 10 10 12 26.0 133.8 935 0 9 -- Chart
1963 10 10 18 27.0 135.0 940 0 9 -- Chart
1963 10 11 00 28.0 136.6 945 0 9 -- Chart
1963 10 11 06 29.5 139.5 955 0 9 -- Chart
1963 10 11 12 31.3 143.0 955 0 9 -- Chart
1963 10 11 18 33.0 147.0 960 0 9 -- Chart
1963 10 12 00 34.6 151.2 990 0 6 -- Chart
1963 10 12 06 36.0 155.0 990 0 6 -- Chart
1963 10 12 12 37.5 158.5 990 0 6 -- Chart
1963 10 12 18 39.5 162.0 994 0 6 -- Chart
1963 10 13 00 41.1 164.5 994 0 6 -- Chart
1963 10 13 06 43.0 166.9 990 0 6 -- Chart
1963 10 13 12 45.3 170.7 990 0 6 -- Chart
1963 10 13 18 47.2 173.2 988 0 6 -- Chart
1963 10 14 00 49.4 179.9 982 0 6 -- Chart
1963 10 14 06 50.6 183.8 976 0 6 -- Chart
Japan Meteorological Agency Best Track Data | Correction Date : 1989-06-01
< Typhoon 196317 1963 Season Typhoon 196319 >

Help